Time;durP1;ratioP1;P1;durP2;ratioP2;P2;SDS_P1;SDS_P2;PMS_P1;PMS_P2;Temp;Humidity;BMP_temperature;BMP_pressure;BME280_temperature;BME280_humidity;BME280_pressure;Samples;Min_cycle;Max_cycle;Signal;HPM_P1;HPM_P2
2022/04/22 00:00:44;;;;;;;8.18;3.63;;;;;;;;;;5068780;28;20033;-89
2022/04/22 00:03:12;;;;;;;11.25;3.50;;;;;;;;;;5033799;28;20049;-89
2022/04/22 00:05:40;;;;;;;8.93;3.13;;;;;;;;;;5047489;28;20069;-89
2022/04/22 00:08:08;;;;;;;7.78;3.40;;;;;;;;;;5042883;28;20045;-89
2022/04/22 00:11:28;;;;;;;5.82;3.13;;;;;;;;;;5046893;28;20038;-89
2022/04/22 00:13:25;;;;;;;10.75;3.47;;;;;;;;;;5050148;28;20039;-89
2022/04/22 00:15:52;;;;;;;6.13;3.10;;;;;;;;;;5054179;28;20051;-89
2022/04/22 00:18:21;;;;;;;8.32;3.13;;;;;;;;;;5052718;28;20041;-89
2022/04/22 00:20:48;;;;;;;8.02;3.50;;;;;;;;;;5052029;28;20037;-89
2022/04/22 00:23:16;;;;;;;8.65;3.08;;;;;;;;;;5053306;28;20043;-89
2022/04/22 00:25:44;;;;;;;8.25;3.33;;;;;;;;;;5062283;28;20033;-89
2022/04/22 00:28:12;;;;;;;9.10;3.10;;;;;;;;;;5052053;28;20460;-89
2022/04/22 00:30:40;;;;;;;6.65;3.00;;;;;;;;;;5050885;28;20040;-89
2022/04/22 00:33:08;;;;;;;7.38;3.15;;;;;;;;;;5053364;28;20043;-89
2022/04/22 00:35:36;;;;;;;5.82;2.67;;;;;;;;;;5063315;28;20053;-89
2022/04/22 00:38:04;;;;;;;7.45;3.00;;;;;;;;;;5046132;28;20037;-89
2022/04/22 00:40:32;;;;;;;7.80;3.28;;;;;;;;;;5061174;28;20048;-89
2022/04/22 00:43:14;;;;;;;7.20;2.70;;;;;;;;;;5051528;28;20072;-89
2022/04/22 00:45:42;;;;;;;7.25;3.00;;;;;;;;;;5049989;28;20032;-89
2022/04/22 00:48:11;;;;;;;6.97;3.35;;;;;;;;;;5051508;28;20037;-89
2022/04/22 00:50:39;;;;;;;6.75;3.13;;;;;;;;;;5062353;28;20041;-89
2022/04/22 00:53:08;;;;;;;5.78;3.00;;;;;;;;;;5047778;28;20059;-89
2022/04/22 00:55:40;;;;;;;6.75;2.90;;;;;;;;;;5050105;28;20119;-89
2022/04/22 00:58:09;;;;;;;6.68;2.97;;;;;;;;;;5041932;28;20037;-89
2022/04/22 01:00:38;;;;;;;6.20;2.95;;;;;;;;;;5061016;28;20052;-89
2022/04/22 01:03:07;;;;;;;7.55;2.88;;;;;;;;;;5052889;28;20158;-89
2022/04/22 01:11:08;;;;;;;7.47;3.20;;;;;;;;;;5065183;28;20036;-89
2022/04/22 01:13:35;;;;;;;9.43;2.90;;;;;;;;;;5049012;28;20479;-89
2022/04/22 01:16:03;;;;;;;6.38;3.13;;;;;;;;;;5051546;28;20037;-89
2022/04/22 01:18:31;;;;;;;7.63;2.90;;;;;;;;;;5018272;28;20132;-89
2022/04/22 01:21:02;;;;;;;6.10;2.90;;;;;;;;;;5052516;28;20025;-89
2022/04/22 01:23:29;;;;;;;7.60;3.17;;;;;;;;;;5066541;28;20045;-89
2022/04/22 01:25:57;;;;;;;8.77;3.22;;;;;;;;;;5050944;28;20481;-89
2022/04/22 01:28:25;;;;;;;10.32;3.40;;;;;;;;;;5064614;28;20047;-89
2022/04/22 01:30:59;;;;;;;10.32;3.67;;;;;;;;;;5052250;28;20033;-89
2022/04/22 01:33:27;;;;;;;6.22;3.22;;;;;;;;;;5056951;28;20120;-89
2022/04/22 01:35:55;;;;;;;13.68;3.70;;;;;;;;;;5046845;28;20039;-89
2022/04/22 01:38:23;;;;;;;10.07;3.92;;;;;;;;;;5044844;28;20516;-89
2022/04/22 01:40:51;;;;;;;7.43;3.20;;;;;;;;;;5063753;28;20033;-89
2022/04/22 01:43:19;;;;;;;8.90;3.45;;;;;;;;;;5049640;28;20099;-89
2022/04/22 01:45:47;;;;;;;9.50;3.88;;;;;;;;;;5060776;28;20072;-89
2022/04/22 01:48:15;;;;;;;7.55;3.38;;;;;;;;;;5049286;28;20029;-89
2022/04/22 01:50:43;;;;;;;9.30;3.45;;;;;;;;;;5037760;28;20036;-89
2022/04/22 01:53:11;;;;;;;11.35;3.85;;;;;;;;;;5049261;28;20052;-89
2022/04/22 01:55:39;;;;;;;7.63;3.30;;;;;;;;;;5051401;28;20405;-89
2022/04/22 01:58:07;;;;;;;7.82;3.08;;;;;;;;;;5062526;28;20033;-89
2022/04/22 02:00:35;;;;;;;9.20;3.38;;;;;;;;;;5041178;28;20038;-89
2022/04/22 02:03:05;;;;;;;7.07;3.28;;;;;;;;;;5041869;28;20041;-89
2022/04/22 02:05:33;;;;;;;9.02;3.47;;;;;;;;;;5042775;28;20033;-89
2022/04/22 02:08:01;;;;;;;8.55;3.33;;;;;;;;;;5067086;28;20434;-89
2022/04/22 02:10:29;;;;;;;6.80;3.75;;;;;;;;;;5042903;28;20049;-89
2022/04/22 02:12:57;;;;;;;7.70;3.38;;;;;;;;;;5062905;28;20099;-89
2022/04/22 02:15:26;;;;;;;7.22;3.30;;;;;;;;;;5050554;28;20419;-89
2022/04/22 02:17:55;;;;;;;8.77;3.63;;;;;;;;;;5051737;28;20033;-89
2022/04/22 02:20:23;;;;;;;7.40;3.17;;;;;;;;;;5067256;28;20460;-88
2022/04/22 02:22:51;;;;;;;5.88;2.90;;;;;;;;;;5050505;28;20048;-89
2022/04/22 02:25:19;;;;;;;9.77;2.75;;;;;;;;;;5058154;28;20045;-89
2022/04/22 02:30:33;;;;;;;6.47;2.30;;;;;;;;;;5044536;28;20487;-89
2022/04/22 02:33:01;;;;;;;6.55;2.88;;;;;;;;;;5062172;28;20053;-89
2022/04/22 02:35:29;;;;;;;6.72;2.70;;;;;;;;;;5042121;28;20044;-89
2022/04/22 02:37:57;;;;;;;9.05;2.80;;;;;;;;;;5054962;28;20607;-89
2022/04/22 02:45:59;;;;;;;7.95;2.83;;;;;;;;;;5048513;28;20529;-89
2022/04/22 02:48:27;;;;;;;7.90;2.75;;;;;;;;;;5057624;28;20037;-89
2022/04/22 02:50:55;;;;;;;6.53;2.72;;;;;;;;;;5057196;28;20037;-89
2022/04/22 02:53:23;;;;;;;8.25;2.92;;;;;;;;;;5065970;28;20086;-89
2022/04/22 02:55:52;;;;;;;7.18;2.90;;;;;;;;;;5096663;28;20040;-89
2022/04/22 02:58:19;;;;;;;10.50;2.90;;;;;;;;;;5088430;28;20041;-89
2022/04/22 03:00:47;;;;;;;6.72;2.83;;;;;;;;;;5077700;28;20052;-89
2022/04/22 03:03:15;;;;;;;10.90;2.78;;;;;;;;;;5078474;28;20041;-89
2022/04/22 03:05:43;;;;;;;6.43;2.97;;;;;;;;;;5073921;28;20037;-89
2022/04/22 03:08:11;;;;;;;7.05;2.72;;;;;;;;;;5057412;28;20045;-89
2022/04/22 03:10:39;;;;;;;6.53;2.60;;;;;;;;;;5084113;28;20047;-89
2022/04/22 03:13:07;;;;;;;14.13;2.95;;;;;;;;;;5064547;28;20033;-89
2022/04/22 03:15:36;;;;;;;6.22;2.38;;;;;;;;;;5038494;28;20041;-89
2022/04/22 03:18:03;;;;;;;10.43;2.80;;;;;;;;;;5064451;28;20079;-89
2022/04/22 03:20:31;;;;;;;10.00;2.55;;;;;;;;;;5054213;28;20516;-89
2022/04/22 03:22:59;;;;;;;7.03;3.22;;;;;;;;;;5048757;28;20037;-89
2022/04/22 03:25:27;;;;;;;5.97;2.53;;;;;;;;;;5065033;28;20041;-89
2022/04/22 03:27:55;;;;;;;8.50;2.47;;;;;;;;;;5048387;28;20512;-89
2022/04/22 03:30:23;;;;;;;8.68;3.15;;;;;;;;;;5049770;28;20037;-89
2022/04/22 03:32:51;;;;;;;5.63;2.50;;;;;;;;;;5048502;28;20106;-89
2022/04/22 03:35:19;;;;;;;9.57;2.95;;;;;;;;;;5065598;28;20075;-89
2022/04/22 03:37:47;;;;;;;9.85;3.00;;;;;;;;;;5048650;28;20148;-89
2022/04/22 03:40:15;;;;;;;6.35;2.88;;;;;;;;;;5046011;28;20139;-89
2022/04/22 03:42:43;;;;;;;7.20;2.85;;;;;;;;;;5061565;28;20041;-89
2022/04/22 03:45:11;;;;;;;9.77;2.65;;;;;;;;;;5043723;28;20516;-89
2022/04/22 03:47:39;;;;;;;8.55;3.28;;;;;;;;;;5046131;28;20041;-89
2022/04/22 03:50:07;;;;;;;8.02;3.03;;;;;;;;;;5035776;28;20041;-89
2022/04/22 03:52:35;;;;;;;7.85;3.15;;;;;;;;;;5050886;28;20608;-89
2022/04/22 03:55:03;;;;;;;8.65;3.17;;;;;;;;;;5052869;28;20056;-89
2022/04/22 04:00:17;;;;;;;;;;;;;;;;;;5062836;28;20103;-89
2022/04/22 04:02:45;;;;;;;9.35;3.10;;;;;;;;;;5060824;28;20386;-89
2022/04/22 04:05:13;;;;;;;8.52;3.33;;;;;;;;;;5049322;28;20044;-89
2022/04/22 04:07:41;;;;;;;10.45;3.25;;;;;;;;;;5061121;28;20045;-89
2022/04/22 04:15:58;;;;;;;9.07;3.40;;;;;;;;;;5071514;28;20037;-89
2022/04/22 04:18:33;;;;;;;6.30;2.97;;;;;;;;;;5062984;28;20120;-89
2022/04/22 04:23:50;;;;;;;11.20;3.30;;;;;;;;;;5050794;28;20045;-89
2022/04/22 04:26:18;;;;;;;9.02;3.88;;;;;;;;;;5049971;28;20124;-89
2022/04/22 04:28:47;;;;;;;7.00;3.75;;;;;;;;;;5067456;28;20040;-89
2022/04/22 04:31:15;;;;;;;11.38;3.92;;;;;;;;;;5051371;28;20482;-89
2022/04/22 04:33:44;;;;;;;9.15;4.03;;;;;;;;;;5052083;28;20037;-89
2022/04/22 04:36:17;;;;;;;10.55;3.75;;;;;;;;;;5051191;28;20092;-89
2022/04/22 04:38:45;;;;;;;15.75;4.57;;;;;;;;;;5040591;28;20041;-89
2022/04/22 04:41:13;;;;;;;9.82;3.50;;;;;;;;;;5062848;28;20034;-89
2022/04/22 04:43:42;;;;;;;11.48;4.28;;;;;;;;;;5051059;28;20439;-89
2022/04/22 04:46:09;;;;;;;13.13;3.97;;;;;;;;;;5048261;28;20100;-89
2022/04/22 04:48:37;;;;;;;11.93;4.18;;;;;;;;;;5044811;28;20029;-89
2022/04/22 04:51:05;;;;;;;8.07;3.95;;;;;;;;;;5048260;28;20483;-89
2022/04/22 04:53:33;;;;;;;7.30;3.60;;;;;;;;;;5045288;28;20040;-89
2022/04/22 04:56:01;;;;;;;7.88;3.50;;;;;;;;;;5041369;28;20478;-89
2022/04/22 04:58:28;;;;;;;10.30;3.20;;;;;;;;;;5065597;28;20090;-89
2022/04/22 05:00:56;;;;;;;10.82;3.88;;;;;;;;;;5054399;28;20029;-89
2022/04/22 05:03:24;;;;;;;15.00;3.72;;;;;;;;;;5035272;28;20032;-89
2022/04/22 05:05:52;;;;;;;14.98;4.75;;;;;;;;;;5048487;28;20053;-89
2022/04/22 05:08:21;;;;;;;9.10;3.88;;;;;;;;;;5045544;28;20091;-89
2022/04/22 05:10:48;;;;;;;8.80;3.80;;;;;;;;;;5060632;28;20064;-90
2022/04/22 05:13:16;;;;;;;8.77;4.50;;;;;;;;;;5048788;28;20379;-90
2022/04/22 05:15:45;;;;;;;10.90;4.00;;;;;;;;;;5047434;28;20099;-90
2022/04/22 05:18:12;;;;;;;11.00;4.00;;;;;;;;;;5054523;28;20041;-90
2022/04/22 05:20:41;;;;;;;10.52;3.95;;;;;;;;;;5046937;28;20494;-89
2022/04/22 05:23:08;;;;;;;9.98;3.97;;;;;;;;;;5052431;28;20096;-90
2022/04/22 05:25:36;;;;;;;11.90;3.67;;;;;;;;;;5049319;28;20051;-88
2022/04/22 05:28:06;;;;;;;10.75;3.85;;;;;;;;;;5034872;28;20127;-91
2022/04/22 05:33:20;;;;;;;10.23;3.38;;;;;;;;;;5049347;28;20054;-81
2022/04/22 05:35:48;;;;;;;8.05;4.03;;;;;;;;;;5047043;28;20475;-80
2022/04/22 05:38:17;;;;;;;6.15;3.25;;;;;;;;;;5063236;28;20070;-80
2022/04/22 05:40:46;;;;;;;8.55;3.50;;;;;;;;;;5045569;28;20041;-80
2022/04/22 05:43:14;;;;;;;6.22;2.88;;;;;;;;;;5046359;28;20047;-81
2022/04/22 05:45:42;;;;;;;5.72;3.08;;;;;;;;;;5048041;28;20124;-81
2022/04/22 05:48:10;;;;;;;13.25;3.10;;;;;;;;;;5065008;28;20751;-80
2022/04/22 05:50:38;;;;;;;12.52;3.53;;;;;;;;;;5066946;28;20091;-80
2022/04/22 05:53:06;;;;;;;6.40;3.30;;;;;;;;;;5074156;28;20041;-82
2022/04/22 05:55:34;;;;;;;9.07;3.53;;;;;;;;;;5053301;28;20044;-80
2022/04/22 05:58:02;;;;;;;6.60;3.28;;;;;;;;;;5044415;28;20037;-80
2022/04/22 06:00:31;;;;;;;7.57;3.47;;;;;;;;;;5044834;28;20083;-80
2022/04/22 06:02:59;;;;;;;9.07;3.58;;;;;;;;;;5047037;28;20044;-79
2022/04/22 06:05:26;;;;;;;6.97;3.25;;;;;;;;;;5046408;28;20380;-80
2022/04/22 06:10:41;;;;;;;7.82;2.58;;;;;;;;;;5041855;28;20128;-79
2022/04/22 06:13:08;;;;;;;13.48;3.33;;;;;;;;;;5042546;28;20045;-79
2022/04/22 06:15:36;;;;;;;6.13;3.00;;;;;;;;;;5044505;28;20479;-79
2022/04/22 06:18:04;;;;;;;12.00;3.45;;;;;;;;;;5041970;28;20044;-79
2022/04/22 06:20:32;;;;;;;11.70;3.45;;;;;;;;;;5042890;28;20076;-81
2022/04/22 06:23:00;;;;;;;7.97;2.85;;;;;;;;;;5041250;28;20049;-79
2022/04/22 06:25:28;;;;;;;8.95;2.90;;;;;;;;;;5044092;28;20117;-79
2022/04/22 06:27:56;;;;;;;6.72;2.80;;;;;;;;;;5062844;28;20040;-79
2022/04/22 06:30:24;;;;;;;9.10;2.85;;;;;;;;;;5047189;28;20029;-80
2022/04/22 06:32:53;;;;;;;6.07;2.65;;;;;;;;;;5038565;28;20421;-79
2022/04/22 06:35:21;;;;;;;8.70;3.03;;;;;;;;;;5043898;28;20051;-80
2022/04/22 06:37:51;;;;;;;11.05;2.70;;;;;;;;;;5043436;28;20045;-79
2022/04/22 06:45:53;;;;;;;6.15;2.45;;;;;;;;;;5040471;28;20115;-80
2022/04/22 06:48:25;;;;;;;9.55;2.60;;;;;;;;;;5045057;28;20041;-78
2022/04/22 06:51:11;;;;;;;6.45;2.53;;;;;;;;;;5041754;28;20052;-80
2022/04/22 06:53:41;;;;;;;8.15;2.30;;;;;;;;;;5062978;28;20040;-80
2022/04/22 06:56:09;;;;;;;8.45;2.35;;;;;;;;;;5047292;28;20037;-80
2022/04/22 06:58:37;;;;;;;7.53;3.08;;;;;;;;;;5043173;28;20058;-80
2022/04/22 07:01:07;;;;;;;10.45;2.83;;;;;;;;;;5043565;28;20036;-81
2022/04/22 07:03:56;;;;;;;7.68;2.47;;;;;;;;;;5044954;28;20033;-80
2022/04/22 07:06:25;;;;;;;9.43;2.63;;;;;;;;;;5045303;28;20474;-80
2022/04/22 07:08:53;;;;;;;9.07;2.67;;;;;;;;;;5046519;28;20056;-81
2022/04/22 07:11:26;;;;;;;9.30;2.60;;;;;;;;;;5043255;28;20036;-80
2022/04/22 07:13:56;;;;;;;10.38;2.80;;;;;;;;;;5058710;28;20037;-80
2022/04/22 07:16:24;;;;;;;10.55;3.25;;;;;;;;;;5059850;28;20127;-80
2022/04/22 07:18:53;;;;;;;5.60;2.70;;;;;;;;;;5048707;28;20045;-80
2022/04/22 07:21:24;;;;;;;10.05;2.63;;;;;;;;;;5050185;28;20061;-80
2022/04/22 07:23:53;;;;;;;5.30;2.72;;;;;;;;;;5043364;28;20068;-80
2022/04/22 07:26:21;;;;;;;6.70;2.50;;;;;;;;;;5052936;28;20115;-81
2022/04/22 07:28:50;;;;;;;4.15;1.83;;;;;;;;;;5047696;28;20033;-81
2022/04/22 07:31:21;;;;;;;6.78;2.70;;;;;;;;;;5049624;28;20033;-81
2022/04/22 07:33:49;;;;;;;8.15;2.72;;;;;;;;;;5045362;28;20053;-81
2022/04/22 07:36:18;;;;;;;6.03;2.70;;;;;;;;;;5050541;28;20037;-82
2022/04/22 07:38:47;;;;;;;11.27;2.58;;;;;;;;;;5050753;28;20089;-81
2022/04/22 07:41:18;;;;;;;6.03;2.63;;;;;;;;;;5051731;28;20138;-80
2022/04/22 07:46:48;;;;;;;6.68;2.42;;;;;;;;;;5056399;28;20589;-81
2022/04/22 07:49:20;;;;;;;6.07;2.45;;;;;;;;;;5053899;28;20629;-82
2022/04/22 07:51:49;;;;;;;8.52;2.13;;;;;;;;;;5055890;28;20635;-81
2022/04/22 07:54:23;;;;;;;6.90;2.28;;;;;;;;;;5048087;28;20041;-82
2022/04/22 07:56:51;;;;;;;7.45;3.05;;;;;;;;;;5052138;28;20099;-82
2022/04/22 07:59:18;;;;;;;12.50;4.68;;;;;;;;;;5048871;28;20083;-81
2022/04/22 08:01:46;;;;;;;6.72;2.10;;;;;;;;;;5049675;28;20036;-81
2022/04/22 08:04:16;;;;;;;10.75;2.83;;;;;;;;;;5052787;28;20371;-81
2022/04/22 08:06:44;;;;;;;6.75;2.17;;;;;;;;;;5050055;28;20098;-81
2022/04/22 08:09:32;;;;;;;10.82;2.92;;;;;;;;;;5047717;28;20053;-81
2022/04/22 08:12:00;;;;;;;5.47;2.80;;;;;;;;;;5051778;28;20041;-81
2022/04/22 08:14:28;;;;;;;9.38;2.65;;;;;;;;;;5049428;28;20056;-81
2022/04/22 08:16:56;;;;;;;7.22;3.10;;;;;;;;;;5049812;28;20040;-81
2022/04/22 08:19:24;;;;;;;5.90;2.13;;;;;;;;;;5066774;28;20037;-82
2022/04/22 08:21:52;;;;;;;6.38;2.40;;;;;;;;;;5047152;28;20513;-82
2022/04/22 08:24:20;;;;;;;8.50;2.45;;;;;;;;;;5052001;28;20048;-82
2022/04/22 08:26:49;;;;;;;6.63;2.30;;;;;;;;;;5052214;28;20047;-83
2022/04/22 08:29:20;;;;;;;7.78;2.67;;;;;;;;;;5048697;28;20486;-81
2022/04/22 08:31:52;;;;;;;7.60;2.38;;;;;;;;;;5046529;28;20033;-81
2022/04/22 08:34:19;;;;;;;10.15;3.00;;;;;;;;;;5052244;28;20410;-82
2022/04/22 08:36:47;;;;;;;5.43;2.33;;;;;;;;;;5045839;28;20048;-81
2022/04/22 08:39:15;;;;;;;12.25;2.47;;;;;;;;;;5043502;28;20033;-82
2022/04/22 08:41:43;;;;;;;8.80;2.72;;;;;;;;;;5044834;28;20489;-82
2022/04/22 08:44:14;;;;;;;8.95;2.83;;;;;;;;;;5064995;28;20040;-82
2022/04/22 08:52:15;;;;;;;12.20;2.80;;;;;;;;;;5047022;28;20045;-82
2022/04/22 08:54:45;;;;;;;6.35;2.50;;;;;;;;;;5039884;28;20457;-82
2022/04/22 08:57:13;;;;;;;4.95;2.40;;;;;;;;;;5066919;28;20403;-82
2022/04/22 08:59:41;;;;;;;6.93;2.35;;;;;;;;;;5050072;28;20044;-83
2022/04/22 09:02:08;;;;;;;5.70;2.60;;;;;;;;;;5050591;28;20037;-82
2022/04/22 09:04:37;;;;;;;6.65;2.78;;;;;;;;;;5051223;28;20037;-82
2022/04/22 09:07:05;;;;;;;6.88;2.47;;;;;;;;;;5048655;28;20102;-82
2022/04/22 09:09:33;;;;;;;8.55;3.05;;;;;;;;;;5045503;28;20072;-82
2022/04/22 09:12:14;;;;;;;7.00;2.85;;;;;;;;;;5066523;28;20064;-82
2022/04/22 09:14:45;;;;;;;4.72;2.38;;;;;;;;;;5047409;28;20049;-82
2022/04/22 09:17:20;;;;;;;7.20;2.55;;;;;;;;;;5046039;28;20051;-82
2022/04/22 09:19:51;;;;;;;6.15;2.42;;;;;;;;;;5048977;28;20433;-82
2022/04/22 09:22:22;;;;;;;5.97;2.42;;;;;;;;;;5050277;28;20033;-82
2022/04/22 09:24:53;;;;;;;5.90;2.70;;;;;;;;;;5047062;28;20132;-82
2022/04/22 09:27:42;;;;;;;6.78;2.95;;;;;;;;;;5049571;28;20910;-82
2022/04/22 09:30:11;;;;;;;7.57;2.70;;;;;;;;;;5054015;28;20044;-81
2022/04/22 09:32:41;;;;;;;6.53;2.97;;;;;;;;;;5047715;28;20069;-82
2022/04/22 09:35:15;;;;;;;11.27;2.78;;;;;;;;;;5071898;28;20040;-81
2022/04/22 09:43:32;;;;;;;9.60;3.05;;;;;;;;;;5054392;28;20084;-81
2022/04/22 09:46:02;;;;;;;7.80;2.92;;;;;;;;;;5050441;28;20037;-82
2022/04/22 09:48:44;;;;;;;8.85;2.90;;;;;;;;;;5052595;28;20041;-82
2022/04/22 09:51:31;;;;;;;6.25;3.03;;;;;;;;;;5053346;28;20047;-82
2022/04/22 09:54:03;;;;;;;9.00;3.10;;;;;;;;;;5056413;28;20033;-81
2022/04/22 09:56:32;;;;;;;10.52;3.25;;;;;;;;;;5065678;28;20045;-81
2022/04/22 09:59:23;;;;;;;8.57;3.70;;;;;;;;;;5047314;28;20037;-81
2022/04/22 10:01:51;;;;;;;7.25;2.80;;;;;;;;;;5052794;28;20048;-81
2022/04/22 10:04:32;;;;;;;8.18;3.70;;;;;;;;;;5058911;28;20535;-81
2022/04/22 10:07:02;;;;;;;7.80;3.10;;;;;;;;;;5050413;28;20043;-81
2022/04/22 10:09:34;;;;;;;5.15;3.03;;;;;;;;;;5045843;28;20052;-81
2022/04/22 10:12:08;;;;;;;5.63;1.95;;;;;;;;;;5047465;28;20060;-81
2022/04/22 10:14:40;;;;;;;7.15;3.08;;;;;;;;;;5059743;28;20441;-81
2022/04/22 10:17:10;;;;;;;8.80;2.85;;;;;;;;;;5049751;28;20075;-81
2022/04/22 10:19:38;;;;;;;7.18;2.80;;;;;;;;;;5048702;28;20041;-81
2022/04/22 10:22:08;;;;;;;10.15;3.88;;;;;;;;;;5046774;28;20033;-81
2022/04/22 10:24:37;;;;;;;6.85;2.30;;;;;;;;;;5045791;28;20037;-81
2022/04/22 10:27:10;;;;;;;6.85;2.13;;;;;;;;;;5060791;28;20056;-81
2022/04/22 10:29:41;;;;;;;8.80;3.00;;;;;;;;;;5048536;28;20045;-81
2022/04/22 10:32:10;;;;;;;6.53;2.80;;;;;;;;;;5044204;28;20029;-81
2022/04/22 10:34:42;;;;;;;6.88;3.00;;;;;;;;;;5038281;28;20095;-81
2022/04/22 10:37:23;;;;;;;10.43;2.88;;;;;;;;;;5050838;28;20086;-81
2022/04/22 10:39:53;;;;;;;7.07;2.47;;;;;;;;;;5044796;28;20413;-81
2022/04/22 10:42:31;;;;;;;6.90;2.70;;;;;;;;;;5049243;28;20558;-81
2022/04/22 10:47:57;;;;;;;7.80;3.35;;;;;;;;;;4991574;28;20065;-81
2022/04/22 10:50:28;;;;;;;6.57;3.30;;;;;;;;;;4993631;28;20054;-82
2022/04/22 10:53:04;;;;;;;11.10;3.65;;;;;;;;;;4994134;28;20058;-81
2022/04/22 10:55:37;;;;;;;7.00;3.65;;;;;;;;;;4995244;28;20066;-82
2022/04/22 10:58:25;;;;;;;11.70;3.72;;;;;;;;;;4992684;28;20051;-82
2022/04/22 11:00:57;;;;;;;9.80;3.50;;;;;;;;;;4995045;28;20050;-82
2022/04/22 11:03:34;;;;;;;9.23;3.05;;;;;;;;;;4996377;28;20102;-82
2022/04/22 11:06:06;;;;;;;7.18;3.22;;;;;;;;;;4993920;28;20050;-82
2022/04/22 11:08:39;;;;;;;10.00;3.15;;;;;;;;;;4998820;28;20137;-82
2022/04/22 11:11:13;;;;;;;6.88;3.25;;;;;;;;;;4979548;28;20053;-82
2022/04/22 11:13:42;;;;;;;7.20;3.85;;;;;;;;;;4994889;28;20046;-82
2022/04/22 11:16:19;;;;;;;11.55;3.92;;;;;;;;;;4995261;28;20369;-82
2022/04/22 11:19:18;;;;;;;9.52;3.05;;;;;;;;;;4997612;28;20055;-82
2022/04/22 11:21:55;;;;;;;7.13;3.55;;;;;;;;;;4994390;28;20069;-81
2022/04/22 11:24:32;;;;;;;10.15;3.13;;;;;;;;;;5006762;28;20056;-81
2022/04/22 11:27:04;;;;;;;7.57;3.35;;;;;;;;;;5047645;28;20033;-82
2022/04/22 11:29:32;;;;;;;11.40;3.65;;;;;;;;;;5063039;28;20683;-82
2022/04/22 11:32:10;;;;;;;9.48;3.20;;;;;;;;;;5050261;28;20052;-81
2022/04/22 11:34:58;;;;;;;6.80;3.00;;;;;;;;;;5061004;28;20074;-82
2022/04/22 11:37:26;;;;;;;8.50;3.45;;;;;;;;;;5069336;28;20051;-82
2022/04/22 11:39:54;;;;;;;8.85;2.95;;;;;;;;;;5063921;28;20083;-82
2022/04/22 11:42:22;;;;;;;6.60;2.97;;;;;;;;;;5051060;28;20037;-82
2022/04/22 11:45:11;;;;;;;5.13;2.97;;;;;;;;;;5048511;28;20037;-81
2022/04/22 11:47:39;;;;;;;7.30;3.15;;;;;;;;;;5062099;28;20047;-81
2022/04/22 11:50:07;;;;;;;8.88;3.58;;;;;;;;;;5050520;28;20065;-81
2022/04/22 11:52:36;;;;;;;6.30;3.15;;;;;;;;;;5068710;28;20037;-82
2022/04/22 11:55:06;;;;;;;8.35;4.10;;;;;;;;;;5046639;28;20107;-81
2022/04/22 11:57:39;;;;;;;9.88;3.95;;;;;;;;;;5048475;28;20128;-81
2022/04/22 12:05:52;;;;;;;8.80;3.33;;;;;;;;;;5048120;28;20065;-83
2022/04/22 12:08:20;;;;;;;7.15;3.17;;;;;;;;;;5051213;28;20044;-81
2022/04/22 12:10:50;;;;;;;8.95;3.60;;;;;;;;;;5043925;28;20045;-81
2022/04/22 12:13:18;;;;;;;7.82;3.42;;;;;;;;;;5046413;28;20035;-81
2022/04/22 12:15:48;;;;;;;10.30;3.53;;;;;;;;;;5047120;28;20053;-81
2022/04/22 12:18:32;;;;;;;9.57;3.45;;;;;;;;;;5051675;28;20467;-82
2022/04/22 12:21:03;;;;;;;9.50;4.25;;;;;;;;;;5063374;28;20095;-81
2022/04/22 12:23:32;;;;;;;10.52;4.13;;;;;;;;;;5050279;28;20068;-81
2022/04/22 12:26:01;;;;;;;9.85;3.60;;;;;;;;;;5047209;28;20041;-81
2022/04/22 12:28:29;;;;;;;11.57;3.85;;;;;;;;;;5044943;28;20041;-81
2022/04/22 12:30:57;;;;;;;10.95;3.90;;;;;;;;;;5048522;28;20060;-81
2022/04/22 12:33:25;;;;;;;10.82;4.30;;;;;;;;;;5045888;28;20414;-81
2022/04/22 12:36:05;;;;;;;12.70;4.90;;;;;;;;;;5049335;28;20512;-81
2022/04/22 12:38:35;;;;;;;13.18;4.85;;;;;;;;;;5061513;28;20072;-81
2022/04/22 12:41:16;;;;;;;11.75;4.18;;;;;;;;;;5048278;28;20052;-81
2022/04/22 12:43:47;;;;;;;8.95;4.40;;;;;;;;;;5046139;28;20033;-81
2022/04/22 12:52:17;;;;;;;9.15;3.33;;;;;;;;;;5065795;28;20041;-81
2022/04/22 12:54:46;;;;;;;10.13;3.15;;;;;;;;;;5061219;28;20041;-81
2022/04/22 12:57:22;;;;;;;13.27;3.83;;;;;;;;;;5062186;28;20052;-81
2022/04/22 12:59:55;;;;;;;9.68;3.83;;;;;;;;;;5057760;28;20064;-81
2022/04/22 13:02:29;;;;;;;6.72;3.83;;;;;;;;;;5049028;28;20120;-81
2022/04/22 13:05:02;;;;;;;6.93;3.35;;;;;;;;;;5051564;28;20044;-82
2022/04/22 13:07:41;;;;;;;9.95;3.88;;;;;;;;;;5042098;28;20037;-81
2022/04/22 13:10:10;;;;;;;8.55;3.08;;;;;;;;;;5049627;28;20037;-81
2022/04/22 13:12:40;;;;;;;10.63;3.60;;;;;;;;;;5042916;28;20058;-82
2022/04/22 13:15:12;;;;;;;11.23;3.65;;;;;;;;;;5052423;28;20459;-81
2022/04/22 13:17:43;;;;;;;10.85;3.30;;;;;;;;;;5050235;28;20132;-81
2022/04/22 13:20:15;;;;;;;9.13;3.65;;;;;;;;;;5051153;28;20041;-81
2022/04/22 13:22:42;;;;;;;9.55;4.03;;;;;;;;;;5052299;28;20042;-81
2022/04/22 13:25:17;;;;;;;7.47;3.40;;;;;;;;;;5052989;28;20537;-81
2022/04/22 13:27:44;;;;;;;8.02;3.85;;;;;;;;;;5050526;28;20045;-81
2022/04/22 13:30:15;;;;;;;8.90;3.70;;;;;;;;;;5043589;28;20059;-81
2022/04/22 13:32:42;;;;;;;7.47;3.35;;;;;;;;;;5062998;28;20735;-81
2022/04/22 13:35:10;;;;;;;8.15;3.00;;;;;;;;;;5046802;28;20033;-81
2022/04/22 13:37:38;;;;;;;8.65;3.20;;;;;;;;;;5051574;28;20108;-81
2022/04/22 13:40:07;;;;;;;6.25;3.22;;;;;;;;;;5048925;28;20090;-81
2022/04/22 13:42:34;;;;;;;4.53;2.15;;;;;;;;;;5052711;28;20041;-81
2022/04/22 13:53:20;;;;;;;9.07;3.33;;;;;;;;;;5048240;28;20049;-82
2022/04/22 13:55:49;;;;;;;6.93;3.13;;;;;;;;;;5046167;28;20398;-81
2022/04/22 13:58:17;;;;;;;8.90;3.20;;;;;;;;;;5042696;28;20115;-81
2022/04/22 14:00:44;;;;;;;9.85;4.13;;;;;;;;;;5044111;28;20100;-81
2022/04/22 14:03:12;;;;;;;11.43;3.53;;;;;;;;;;5048390;28;20825;-81
2022/04/22 14:05:40;;;;;;;8.40;3.72;;;;;;;;;;5067685;28;20071;-81
2022/04/22 14:08:08;;;;;;;7.75;3.33;;;;;;;;;;5052367;28;20049;-81
2022/04/22 14:10:36;;;;;;;8.95;3.78;;;;;;;;;;5049972;28;20041;-81
2022/04/22 14:13:04;;;;;;;10.48;3.67;;;;;;;;;;5041981;28;20443;-81
2022/04/22 14:15:32;;;;;;;8.55;4.28;;;;;;;;;;5048517;28;20087;-81
2022/04/22 14:18:00;;;;;;;9.77;3.50;;;;;;;;;;5047589;28;20036;-81
2022/04/22 14:20:28;;;;;;;11.40;4.30;;;;;;;;;;5049950;28;20726;-81
2022/04/22 14:22:56;;;;;;;11.30;3.90;;;;;;;;;;5041662;28;20044;-81
2022/04/22 14:25:24;;;;;;;11.10;4.22;;;;;;;;;;5047326;28;20060;-82
2022/04/22 14:27:53;;;;;;;8.55;3.70;;;;;;;;;;5043787;28;20037;-82
2022/04/22 14:30:20;;;;;;;9.43;3.95;;;;;;;;;;5042191;28;20208;-82
2022/04/22 14:32:48;;;;;;;9.18;4.30;;;;;;;;;;5063054;28;20095;-82
2022/04/22 14:35:20;;;;;;;9.45;3.40;;;;;;;;;;5049235;28;20065;-82
2022/04/22 14:37:48;;;;;;;8.13;4.25;;;;;;;;;;5051061;28;20386;-82
2022/04/22 14:40:16;;;;;;;11.85;3.63;;;;;;;;;;5044743;28;20042;-82
2022/04/22 14:42:44;;;;;;;10.77;4.28;;;;;;;;;;5053446;28;20037;-82
2022/04/22 14:45:12;;;;;;;12.35;4.57;;;;;;;;;;5043511;28;20033;-81
2022/04/22 14:47:46;;;;;;;10.63;4.22;;;;;;;;;;5035502;28;20072;-80
2022/04/22 14:50:14;;;;;;;12.80;4.10;;;;;;;;;;5050338;28;20052;-81
2022/04/22 14:52:43;;;;;;;10.90;4.97;;;;;;;;;;5051882;28;20116;-81
2022/04/22 14:55:10;;;;;;;7.95;3.60;;;;;;;;;;5050495;28;20029;-81
2022/04/22 14:57:38;;;;;;;10.32;4.72;;;;;;;;;;5055224;28;20606;-81
2022/04/22 15:00:07;;;;;;;13.93;5.70;;;;;;;;;;5049639;28;20044;-81
2022/04/22 15:02:38;;;;;;;10.38;4.07;;;;;;;;;;5062515;28;20037;-81
2022/04/22 15:05:06;;;;;;;7.88;3.53;;;;;;;;;;5046956;28;20041;-81
2022/04/22 15:07:35;;;;;;;6.50;3.30;;;;;;;;;;5063683;28;20102;-80
2022/04/22 15:10:03;;;;;;;8.07;3.63;;;;;;;;;;5047564;28;20039;-80
2022/04/22 15:12:31;;;;;;;9.60;3.00;;;;;;;;;;5057277;28;20053;-80
2022/04/22 15:14:58;;;;;;;8.00;3.28;;;;;;;;;;5047255;28;20044;-79
2022/04/22 15:25:46;;;;;;;8.52;3.13;;;;;;;;;;5044487;28;20083;-80
2022/04/22 15:28:18;;;;;;;10.48;2.67;;;;;;;;;;5065555;28;20041;-79
2022/04/22 15:30:59;;;;;;;10.07;3.88;;;;;;;;;;5047257;28;20068;-79
2022/04/22 15:33:27;;;;;;;10.30;3.33;;;;;;;;;;5045044;28;20198;-81
2022/04/22 15:35:55;;;;;;;6.70;2.95;;;;;;;;;;5061976;28;20051;-80
2022/04/22 15:38:23;;;;;;;6.28;2.75;;;;;;;;;;5048412;28;20041;-80
2022/04/22 15:40:51;;;;;;;10.82;3.00;;;;;;;;;;5064443;28;20640;-81
2022/04/22 15:43:20;;;;;;;12.75;3.30;;;;;;;;;;5053108;28;20075;-83
2022/04/22 15:45:49;;;;;;;3.17;1.40;;;;;;;;;;5045944;28;20048;-81
2022/04/22 15:48:15;;;;;;;7.70;2.88;;;;;;;;;;5049889;28;20060;-81
2022/04/22 15:50:43;;;;;;;8.15;3.30;;;;;;;;;;5049011;28;20064;-79
2022/04/22 15:53:11;;;;;;;12.93;6.40;;;;;;;;;;5044802;28;20040;-78
2022/04/22 15:55:39;;;;;;;12.00;4.22;;;;;;;;;;5040976;28;20551;-79
2022/04/22 15:58:09;;;;;;;7.38;2.97;;;;;;;;;;5046397;28;20552;-78
2022/04/22 16:00:37;;;;;;;8.02;3.42;;;;;;;;;;5043886;28;20703;-78
2022/04/22 16:03:07;;;;;;;10.73;4.03;;;;;;;;;;5045478;28;20063;-81
2022/04/22 16:05:34;;;;;;;8.95;3.30;;;;;;;;;;5047069;28;20041;-78
2022/04/22 16:08:02;;;;;;;7.47;3.50;;;;;;;;;;5047660;28;20049;-78
2022/04/22 16:10:29;;;;;;;7.43;2.88;;;;;;;;;;5044613;28;20414;-78
2022/04/22 16:15:43;;;;;;;11.80;3.38;;;;;;;;;;5059127;28;20041;-79
2022/04/22 16:18:14;;;;;;;7.82;3.40;;;;;;;;;;5043799;28;20084;-79
2022/04/22 16:20:41;;;;;;;7.50;2.97;;;;;;;;;;5028423;28;20064;-78